sensor_id;sensor_type;location;lat;lon;timestamp;P1;durP1;ratioP1;P2;durP2;ratioP2
18449;SDS011;9354;50.194;7.690;2023-04-15T00:01:24;5.83;;;1.33;;
18449;SDS011;9354;50.194;7.690;2023-04-15T00:03:52;2.70;;;0.93;;
18449;SDS011;9354;50.194;7.690;2023-04-15T00:06:21;2.30;;;0.87;;
18449;SDS011;9354;50.194;7.690;2023-04-15T00:08:48;5.83;;;0.90;;
18449;SDS011;9354;50.194;7.690;2023-04-15T00:11:16;1.63;;;1.13;;
18449;SDS011;9354;50.194;7.690;2023-04-15T00:13:44;1.80;;;0.80;;
18449;SDS011;9354;50.194;7.690;2023-04-15T00:16:13;3.40;;;0.90;;
18449;SDS011;9354;50.194;7.690;2023-04-15T00:18:40;4.87;;;1.30;;
18449;SDS011;9354;50.194;7.690;2023-04-15T00:21:08;3.80;;;1.07;;
18449;SDS011;9354;50.194;7.690;2023-04-15T00:23:36;2.90;;;0.90;;
18449;SDS011;9354;50.194;7.690;2023-04-15T00:26:03;3.70;;;0.80;;
18449;SDS011;9354;50.194;7.690;2023-04-15T00:28:30;4.30;;;1.03;;
18449;SDS011;9354;50.194;7.690;2023-04-15T00:30:58;2.93;;;1.17;;
18449;SDS011;9354;50.194;7.690;2023-04-15T00:33:27;3.37;;;1.10;;
18449;SDS011;9354;50.194;7.690;2023-04-15T00:35:54;2.17;;;0.73;;
18449;SDS011;9354;50.194;7.690;2023-04-15T00:38:22;3.33;;;0.90;;
18449;SDS011;9354;50.194;7.690;2023-04-15T00:40:49;5.17;;;2.20;;
18449;SDS011;9354;50.194;7.690;2023-04-15T00:43:17;3.47;;;1.10;;
18449;SDS011;9354;50.194;7.690;2023-04-15T00:45:45;2.27;;;0.80;;
18449;SDS011;9354;50.194;7.690;2023-04-15T00:48:12;5.63;;;1.07;;
18449;SDS011;9354;50.194;7.690;2023-04-15T00:50:42;3.60;;;1.20;;
18449;SDS011;9354;50.194;7.690;2023-04-15T00:53:09;4.30;;;1.00;;
18449;SDS011;9354;50.194;7.690;2023-04-15T00:55:37;5.33;;;1.40;;
18449;SDS011;9354;50.194;7.690;2023-04-15T00:58:04;2.93;;;1.03;;
18449;SDS011;9354;50.194;7.690;2023-04-15T01:00:32;3.13;;;0.73;;
18449;SDS011;9354;50.194;7.690;2023-04-15T01:03:00;3.33;;;0.73;;
18449;SDS011;9354;50.194;7.690;2023-04-15T01:05:27;2.30;;;0.87;;
18449;SDS011;9354;50.194;7.690;2023-04-15T01:07:57;2.27;;;0.83;;
18449;SDS011;9354;50.194;7.690;2023-04-15T01:10:25;4.17;;;1.20;;
18449;SDS011;9354;50.194;7.690;2023-04-15T01:12:53;2.37;;;1.10;;
18449;SDS011;9354;50.194;7.690;2023-04-15T01:15:20;4.27;;;0.90;;
18449;SDS011;9354;50.194;7.690;2023-04-15T01:17:48;8.37;;;1.00;;
18449;SDS011;9354;50.194;7.690;2023-04-15T01:20:16;2.13;;;0.90;;
18449;SDS011;9354;50.194;7.690;2023-04-15T01:22:43;5.13;;;1.10;;
18449;SDS011;9354;50.194;7.690;2023-04-15T01:25:14;3.83;;;1.00;;
18449;SDS011;9354;50.194;7.690;2023-04-15T01:27:45;1.60;;;0.90;;
18449;SDS011;9354;50.194;7.690;2023-04-15T01:30:13;3.93;;;1.03;;
18449;SDS011;9354;50.194;7.690;2023-04-15T01:32:40;3.27;;;1.10;;
18449;SDS011;9354;50.194;7.690;2023-04-15T01:35:08;2.87;;;0.80;;
18449;SDS011;9354;50.194;7.690;2023-04-15T01:37:35;1.33;;;0.70;;
18449;SDS011;9354;50.194;7.690;2023-04-15T01:40:03;1.73;;;0.70;;
18449;SDS011;9354;50.194;7.690;2023-04-15T01:42:31;2.93;;;0.70;;
18449;SDS011;9354;50.194;7.690;2023-04-15T01:45:00;2.90;;;0.90;;
18449;SDS011;9354;50.194;7.690;2023-04-15T01:47:28;2.97;;;1.33;;
18449;SDS011;9354;50.194;7.690;2023-04-15T01:49:55;2.77;;;1.00;;
18449;SDS011;9354;50.194;7.690;2023-04-15T01:52:22;4.77;;;1.10;;
18449;SDS011;9354;50.194;7.690;2023-04-15T01:54:50;4.50;;;1.03;;
18449;SDS011;9354;50.194;7.690;2023-04-15T01:57:17;2.60;;;0.93;;
18449;SDS011;9354;50.194;7.690;2023-04-15T01:59:44;1.83;;;0.70;;
18449;SDS011;9354;50.194;7.690;2023-04-15T02:02:13;2.30;;;0.90;;
18449;SDS011;9354;50.194;7.690;2023-04-15T02:04:41;4.03;;;0.90;;
18449;SDS011;9354;50.194;7.690;2023-04-15T02:07:09;4.77;;;0.93;;
18449;SDS011;9354;50.194;7.690;2023-04-15T02:09:36;3.43;;;0.80;;
18449;SDS011;9354;50.194;7.690;2023-04-15T02:12:04;3.37;;;1.10;;
18449;SDS011;9354;50.194;7.690;2023-04-15T02:14:31;2.97;;;0.90;;
18449;SDS011;9354;50.194;7.690;2023-04-15T02:16:59;3.67;;;1.10;;
18449;SDS011;9354;50.194;7.690;2023-04-15T02:19:33;1.87;;;0.80;;
18449;SDS011;9354;50.194;7.690;2023-04-15T02:22:00;3.80;;;0.93;;
18449;SDS011;9354;50.194;7.690;2023-04-15T02:24:28;1.20;;;0.70;;
18449;SDS011;9354;50.194;7.690;2023-04-15T02:26:56;2.77;;;1.10;;
18449;SDS011;9354;50.194;7.690;2023-04-15T02:29:23;5.33;;;1.30;;
18449;SDS011;9354;50.194;7.690;2023-04-15T02:31:51;2.43;;;1.00;;
18449;SDS011;9354;50.194;7.690;2023-04-15T02:34:18;3.83;;;1.10;;
18449;SDS011;9354;50.194;7.690;2023-04-15T02:36:47;2.23;;;0.97;;
18449;SDS011;9354;50.194;7.690;2023-04-15T02:39:19;2.23;;;0.90;;
18449;SDS011;9354;50.194;7.690;2023-04-15T02:41:46;4.07;;;1.07;;
18449;SDS011;9354;50.194;7.690;2023-04-15T02:44:16;2.80;;;1.00;;
18449;SDS011;9354;50.194;7.690;2023-04-15T02:46:44;3.03;;;1.03;;
18449;SDS011;9354;50.194;7.690;2023-04-15T02:49:15;4.83;;;0.83;;
18449;SDS011;9354;50.194;7.690;2023-04-15T02:51:43;5.13;;;1.10;;
18449;SDS011;9354;50.194;7.690;2023-04-15T02:54:15;4.93;;;1.47;;
18449;SDS011;9354;50.194;7.690;2023-04-15T02:56:43;2.10;;;1.07;;
18449;SDS011;9354;50.194;7.690;2023-04-15T02:59:10;2.27;;;1.10;;
18449;SDS011;9354;50.194;7.690;2023-04-15T03:01:38;4.17;;;1.00;;
18449;SDS011;9354;50.194;7.690;2023-04-15T03:04:05;2.33;;;0.67;;
18449;SDS011;9354;50.194;7.690;2023-04-15T03:06:33;2.77;;;0.80;;
18449;SDS011;9354;50.194;7.690;2023-04-15T03:09:00;2.53;;;0.90;;
18449;SDS011;9354;50.194;7.690;2023-04-15T03:11:29;3.33;;;0.90;;
18449;SDS011;9354;50.194;7.690;2023-04-15T03:13:57;3.87;;;1.10;;
18449;SDS011;9354;50.194;7.690;2023-04-15T03:16:24;2.30;;;0.80;;
18449;SDS011;9354;50.194;7.690;2023-04-15T03:18:52;4.23;;;1.00;;
18449;SDS011;9354;50.194;7.690;2023-04-15T03:21:19;2.80;;;1.00;;
18449;SDS011;9354;50.194;7.690;2023-04-15T03:23:47;2.50;;;1.00;;
18449;SDS011;9354;50.194;7.690;2023-04-15T03:26:22;4.07;;;1.20;;
18449;SDS011;9354;50.194;7.690;2023-04-15T03:28:52;5.83;;;1.30;;
18449;SDS011;9354;50.194;7.690;2023-04-15T03:31:19;3.63;;;1.07;;
18449;SDS011;9354;50.194;7.690;2023-04-15T03:33:47;6.17;;;1.53;;
18449;SDS011;9354;50.194;7.690;2023-04-15T03:36:14;2.97;;;1.40;;
18449;SDS011;9354;50.194;7.690;2023-04-15T03:38:42;3.30;;;1.20;;
18449;SDS011;9354;50.194;7.690;2023-04-15T03:41:09;2.87;;;1.20;;
18449;SDS011;9354;50.194;7.690;2023-04-15T03:43:37;2.40;;;1.37;;
18449;SDS011;9354;50.194;7.690;2023-04-15T03:46:06;3.03;;;1.27;;
18449;SDS011;9354;50.194;7.690;2023-04-15T03:48:33;4.60;;;1.33;;
18449;SDS011;9354;50.194;7.690;2023-04-15T03:51:01;4.00;;;1.13;;
18449;SDS011;9354;50.194;7.690;2023-04-15T03:53:28;3.80;;;1.17;;
18449;SDS011;9354;50.194;7.690;2023-04-15T03:55:55;4.57;;;1.30;;
18449;SDS011;9354;50.194;7.690;2023-04-15T03:58:23;6.10;;;1.33;;
18449;SDS011;9354;50.194;7.690;2023-04-15T04:00:50;4.57;;;1.50;;
18449;SDS011;9354;50.194;7.690;2023-04-15T04:03:19;1.90;;;1.07;;
18449;SDS011;9354;50.194;7.690;2023-04-15T04:05:46;6.60;;;1.20;;
18449;SDS011;9354;50.194;7.690;2023-04-15T04:08:14;3.93;;;1.37;;
18449;SDS011;9354;50.194;7.690;2023-04-15T04:10:41;6.00;;;1.43;;
18449;SDS011;9354;50.194;7.690;2023-04-15T04:13:09;4.27;;;1.47;;
18449;SDS011;9354;50.194;7.690;2023-04-15T04:15:36;3.27;;;1.40;;
18449;SDS011;9354;50.194;7.690;2023-04-15T04:18:03;5.23;;;1.33;;
18449;SDS011;9354;50.194;7.690;2023-04-15T04:20:32;2.07;;;1.13;;
18449;SDS011;9354;50.194;7.690;2023-04-15T04:23:00;2.57;;;1.13;;
18449;SDS011;9354;50.194;7.690;2023-04-15T04:25:27;3.83;;;1.30;;
18449;SDS011;9354;50.194;7.690;2023-04-15T04:27:54;5.90;;;1.20;;
18449;SDS011;9354;50.194;7.690;2023-04-15T04:30:22;2.80;;;1.00;;
18449;SDS011;9354;50.194;7.690;2023-04-15T04:32:49;3.53;;;1.10;;
18449;SDS011;9354;50.194;7.690;2023-04-15T04:35:16;4.13;;;1.17;;
18449;SDS011;9354;50.194;7.690;2023-04-15T04:37:45;2.90;;;1.17;;
18449;SDS011;9354;50.194;7.690;2023-04-15T04:40:13;3.30;;;1.27;;
18449;SDS011;9354;50.194;7.690;2023-04-15T04:42:40;4.90;;;1.33;;
18449;SDS011;9354;50.194;7.690;2023-04-15T04:45:08;2.57;;;1.00;;
18449;SDS011;9354;50.194;7.690;2023-04-15T04:47:35;2.97;;;1.00;;
18449;SDS011;9354;50.194;7.690;2023-04-15T04:50:03;1.80;;;0.90;;
18449;SDS011;9354;50.194;7.690;2023-04-15T04:52:31;1.97;;;1.10;;
18449;SDS011;9354;50.194;7.690;2023-04-15T04:55:00;3.30;;;1.30;;
18449;SDS011;9354;50.194;7.690;2023-04-15T04:57:27;4.60;;;1.30;;
18449;SDS011;9354;50.194;7.690;2023-04-15T04:59:54;5.90;;;1.40;;
18449;SDS011;9354;50.194;7.690;2023-04-15T05:02:22;3.57;;;1.43;;
18449;SDS011;9354;50.194;7.690;2023-04-15T05:04:51;3.27;;;1.47;;
18449;SDS011;9354;50.194;7.690;2023-04-15T05:07:19;5.83;;;1.50;;
18449;SDS011;9354;50.194;7.690;2023-04-15T05:09:47;5.13;;;1.33;;
18449;SDS011;9354;50.194;7.690;2023-04-15T05:12:16;5.03;;;1.60;;
18449;SDS011;9354;50.194;7.690;2023-04-15T05:14:43;4.83;;;1.50;;
18449;SDS011;9354;50.194;7.690;2023-04-15T05:17:11;3.40;;;1.30;;
18449;SDS011;9354;50.194;7.690;2023-04-15T05:19:38;6.43;;;1.60;;
18449;SDS011;9354;50.194;7.690;2023-04-15T05:22:06;5.17;;;1.40;;
18449;SDS011;9354;50.194;7.690;2023-04-15T05:24:33;7.90;;;1.50;;
18449;SDS011;9354;50.194;7.690;2023-04-15T05:27:01;6.00;;;1.90;;
18449;SDS011;9354;50.194;7.690;2023-04-15T05:29:30;11.27;;;1.60;;
18449;SDS011;9354;50.194;7.690;2023-04-15T05:31:57;8.10;;;1.73;;
18449;SDS011;9354;50.194;7.690;2023-04-15T05:34:25;5.43;;;1.73;;
18449;SDS011;9354;50.194;7.690;2023-04-15T05:36:53;4.17;;;1.47;;
18449;SDS011;9354;50.194;7.690;2023-04-15T05:39:20;7.43;;;1.93;;
18449;SDS011;9354;50.194;7.690;2023-04-15T05:41:47;4.00;;;1.60;;
18449;SDS011;9354;50.194;7.690;2023-04-15T05:44:15;4.30;;;1.50;;
18449;SDS011;9354;50.194;7.690;2023-04-15T05:46:43;6.97;;;1.63;;
18449;SDS011;9354;50.194;7.690;2023-04-15T05:49:11;4.80;;;1.57;;
18449;SDS011;9354;50.194;7.690;2023-04-15T05:51:38;4.10;;;1.90;;
18449;SDS011;9354;50.194;7.690;2023-04-15T05:54:05;4.30;;;1.80;;
18449;SDS011;9354;50.194;7.690;2023-04-15T05:56:33;4.17;;;1.50;;
18449;SDS011;9354;50.194;7.690;2023-04-15T05:59:00;6.00;;;2.57;;
18449;SDS011;9354;50.194;7.690;2023-04-15T06:01:28;7.70;;;2.10;;
18449;SDS011;9354;50.194;7.690;2023-04-15T06:03:57;5.40;;;2.17;;
18449;SDS011;9354;50.194;7.690;2023-04-15T06:06:24;5.03;;;1.83;;
18449;SDS011;9354;50.194;7.690;2023-04-15T06:08:52;6.43;;;1.60;;
18449;SDS011;9354;50.194;7.690;2023-04-15T06:11:20;3.93;;;1.80;;
18449;SDS011;9354;50.194;7.690;2023-04-15T06:13:47;5.90;;;1.90;;
18449;SDS011;9354;50.194;7.690;2023-04-15T06:16:15;7.33;;;1.90;;
18449;SDS011;9354;50.194;7.690;2023-04-15T06:18:42;4.37;;;1.30;;
18449;SDS011;9354;50.194;7.690;2023-04-15T06:21:11;2.90;;;1.67;;
18449;SDS011;9354;50.194;7.690;2023-04-15T06:23:38;4.77;;;1.93;;
18449;SDS011;9354;50.194;7.690;2023-04-15T06:26:06;3.10;;;1.27;;
18449;SDS011;9354;50.194;7.690;2023-04-15T06:28:34;3.20;;;1.43;;
18449;SDS011;9354;50.194;7.690;2023-04-15T06:31:01;3.83;;;1.60;;
18449;SDS011;9354;50.194;7.690;2023-04-15T06:33:29;4.90;;;1.70;;
18449;SDS011;9354;50.194;7.690;2023-04-15T06:35:57;7.00;;;1.60;;
18449;SDS011;9354;50.194;7.690;2023-04-15T06:38:25;3.60;;;1.73;;
18449;SDS011;9354;50.194;7.690;2023-04-15T06:40:53;5.93;;;1.90;;
18449;SDS011;9354;50.194;7.690;2023-04-15T06:43:20;5.53;;;2.40;;
18449;SDS011;9354;50.194;7.690;2023-04-15T06:45:48;5.57;;;2.17;;
18449;SDS011;9354;50.194;7.690;2023-04-15T06:48:15;7.97;;;2.27;;
18449;SDS011;9354;50.194;7.690;2023-04-15T06:50:43;6.57;;;2.40;;
18449;SDS011;9354;50.194;7.690;2023-04-15T06:53:10;3.90;;;1.60;;
18449;SDS011;9354;50.194;7.690;2023-04-15T06:55:39;5.37;;;1.63;;
18449;SDS011;9354;50.194;7.690;2023-04-15T06:58:07;8.00;;;1.87;;
18449;SDS011;9354;50.194;7.690;2023-04-15T07:00:34;3.43;;;1.80;;
18449;SDS011;9354;50.194;7.690;2023-04-15T07:03:03;7.93;;;2.53;;
18449;SDS011;9354;50.194;7.690;2023-04-15T07:05:31;9.93;;;2.50;;
18449;SDS011;9354;50.194;7.690;2023-04-15T07:07:59;4.43;;;1.93;;
18449;SDS011;9354;50.194;7.690;2023-04-15T07:10:26;3.37;;;1.53;;
18449;SDS011;9354;50.194;7.690;2023-04-15T07:12:55;5.20;;;1.90;;
18449;SDS011;9354;50.194;7.690;2023-04-15T07:15:22;6.83;;;1.70;;
18449;SDS011;9354;50.194;7.690;2023-04-15T07:17:50;9.27;;;1.70;;
18449;SDS011;9354;50.194;7.690;2023-04-15T07:20:17;5.27;;;1.47;;
18449;SDS011;9354;50.194;7.690;2023-04-15T07:22:45;3.03;;;1.50;;
18449;SDS011;9354;50.194;7.690;2023-04-15T07:25:12;6.47;;;1.53;;
18449;SDS011;9354;50.194;7.690;2023-04-15T07:27:40;4.90;;;2.03;;
18449;SDS011;9354;50.194;7.690;2023-04-15T07:30:09;8.60;;;1.60;;
18449;SDS011;9354;50.194;7.690;2023-04-15T07:32:37;7.03;;;1.63;;
18449;SDS011;9354;50.194;7.690;2023-04-15T07:35:04;3.93;;;1.77;;
18449;SDS011;9354;50.194;7.690;2023-04-15T07:37:32;3.07;;;1.50;;
18449;SDS011;9354;50.194;7.690;2023-04-15T07:40:00;4.40;;;1.60;;
18449;SDS011;9354;50.194;7.690;2023-04-15T07:42:29;9.30;;;1.87;;
18449;SDS011;9354;50.194;7.690;2023-04-15T07:44:56;3.33;;;1.50;;
18449;SDS011;9354;50.194;7.690;2023-04-15T07:47:25;7.30;;;1.83;;
18449;SDS011;9354;50.194;7.690;2023-04-15T07:49:52;7.60;;;2.10;;
18449;SDS011;9354;50.194;7.690;2023-04-15T07:52:20;6.07;;;2.63;;
18449;SDS011;9354;50.194;7.690;2023-04-15T07:54:47;6.40;;;1.93;;
18449;SDS011;9354;50.194;7.690;2023-04-15T07:57:15;6.60;;;2.00;;
18449;SDS011;9354;50.194;7.690;2023-04-15T07:59:42;4.30;;;1.60;;
18449;SDS011;9354;50.194;7.690;2023-04-15T08:02:10;5.03;;;1.80;;
18449;SDS011;9354;50.194;7.690;2023-04-15T08:04:39;3.03;;;1.60;;
18449;SDS011;9354;50.194;7.690;2023-04-15T08:07:07;6.17;;;1.80;;
18449;SDS011;9354;50.194;7.690;2023-04-15T08:09:34;5.73;;;1.93;;
18449;SDS011;9354;50.194;7.690;2023-04-15T08:12:01;7.03;;;1.67;;
18449;SDS011;9354;50.194;7.690;2023-04-15T08:14:29;7.33;;;1.90;;
18449;SDS011;9354;50.194;7.690;2023-04-15T08:16:57;6.07;;;2.10;;
18449;SDS011;9354;50.194;7.690;2023-04-15T08:19:24;5.60;;;1.90;;
18449;SDS011;9354;50.194;7.690;2023-04-15T08:21:53;6.90;;;2.00;;
18449;SDS011;9354;50.194;7.690;2023-04-15T08:24:20;6.93;;;1.90;;
18449;SDS011;9354;50.194;7.690;2023-04-15T08:26:51;5.47;;;2.17;;
18449;SDS011;9354;50.194;7.690;2023-04-15T08:29:19;5.53;;;2.10;;
18449;SDS011;9354;50.194;7.690;2023-04-15T08:31:46;5.43;;;2.23;;
18449;SDS011;9354;50.194;7.690;2023-04-15T08:34:14;4.27;;;1.90;;
18449;SDS011;9354;50.194;7.690;2023-04-15T08:36:42;7.13;;;2.27;;
18449;SDS011;9354;50.194;7.690;2023-04-15T08:39:11;6.67;;;2.07;;
18449;SDS011;9354;50.194;7.690;2023-04-15T08:41:39;7.03;;;1.90;;
18449;SDS011;9354;50.194;7.690;2023-04-15T08:44:11;9.43;;;2.70;;
18449;SDS011;9354;50.194;7.690;2023-04-15T08:46:40;5.23;;;2.40;;
18449;SDS011;9354;50.194;7.690;2023-04-15T08:49:09;4.47;;;2.20;;
18449;SDS011;9354;50.194;7.690;2023-04-15T08:51:37;7.63;;;2.50;;
18449;SDS011;9354;50.194;7.690;2023-04-15T08:54:06;5.53;;;2.37;;
18449;SDS011;9354;50.194;7.690;2023-04-15T08:56:37;9.73;;;2.83;;
18449;SDS011;9354;50.194;7.690;2023-04-15T08:59:05;7.87;;;2.77;;
18449;SDS011;9354;50.194;7.690;2023-04-15T09:01:33;4.27;;;2.40;;
18449;SDS011;9354;50.194;7.690;2023-04-15T09:04:01;9.30;;;2.40;;
18449;SDS011;9354;50.194;7.690;2023-04-15T09:06:31;8.50;;;2.43;;
18449;SDS011;9354;50.194;7.690;2023-04-15T09:08:58;4.87;;;2.47;;
18449;SDS011;9354;50.194;7.690;2023-04-15T09:11:25;6.50;;;2.50;;
18449;SDS011;9354;50.194;7.690;2023-04-15T09:13:54;7.87;;;2.73;;
18449;SDS011;9354;50.194;7.690;2023-04-15T09:16:22;10.53;;;2.63;;
18449;SDS011;9354;50.194;7.690;2023-04-15T09:18:49;7.00;;;2.73;;
18449;SDS011;9354;50.194;7.690;2023-04-15T09:21:17;4.03;;;2.17;;
18449;SDS011;9354;50.194;7.690;2023-04-15T09:23:54;10.17;;;3.13;;
18449;SDS011;9354;50.194;7.690;2023-04-15T09:26:31;8.03;;;2.60;;
18449;SDS011;9354;50.194;7.690;2023-04-15T09:29:07;4.63;;;2.13;;
18449;SDS011;9354;50.194;7.690;2023-04-15T09:31:38;6.20;;;2.37;;
18449;SDS011;9354;50.194;7.690;2023-04-15T09:34:06;7.17;;;2.43;;
18449;SDS011;9354;50.194;7.690;2023-04-15T09:36:51;7.10;;;2.20;;
18449;SDS011;9354;50.194;7.690;2023-04-15T09:39:19;6.50;;;2.33;;
18449;SDS011;9354;50.194;7.690;2023-04-15T09:42:03;10.07;;;2.50;;
18449;SDS011;9354;50.194;7.690;2023-04-15T09:44:33;5.27;;;2.30;;
18449;SDS011;9354;50.194;7.690;2023-04-15T09:47:01;7.03;;;2.17;;
18449;SDS011;9354;50.194;7.690;2023-04-15T09:49:28;5.57;;;2.60;;
18449;SDS011;9354;50.194;7.690;2023-04-15T09:51:59;7.63;;;2.53;;
18449;SDS011;9354;50.194;7.690;2023-04-15T09:54:33;6.20;;;2.70;;
18449;SDS011;9354;50.194;7.690;2023-04-15T09:57:05;9.17;;;2.73;;
18449;SDS011;9354;50.194;7.690;2023-04-15T09:59:35;7.03;;;2.33;;
18449;SDS011;9354;50.194;7.690;2023-04-15T10:02:03;5.67;;;2.10;;
18449;SDS011;9354;50.194;7.690;2023-04-15T10:04:32;3.63;;;1.60;;
18449;SDS011;9354;50.194;7.690;2023-04-15T10:07:02;3.80;;;1.70;;
18449;SDS011;9354;50.194;7.690;2023-04-15T10:09:34;5.23;;;2.13;;
18449;SDS011;9354;50.194;7.690;2023-04-15T10:12:02;6.13;;;2.00;;
18449;SDS011;9354;50.194;7.690;2023-04-15T10:14:30;5.07;;;1.90;;
18449;SDS011;9354;50.194;7.690;2023-04-15T10:17:01;4.97;;;1.70;;
18449;SDS011;9354;50.194;7.690;2023-04-15T10:19:32;3.90;;;1.90;;
18449;SDS011;9354;50.194;7.690;2023-04-15T10:22:02;3.33;;;1.63;;
18449;SDS011;9354;50.194;7.690;2023-04-15T10:24:30;4.17;;;1.90;;
18449;SDS011;9354;50.194;7.690;2023-04-15T10:26:58;7.43;;;1.67;;
18449;SDS011;9354;50.194;7.690;2023-04-15T10:29:26;8.20;;;1.77;;
18449;SDS011;9354;50.194;7.690;2023-04-15T10:31:53;7.37;;;2.10;;
18449;SDS011;9354;50.194;7.690;2023-04-15T10:34:23;2.87;;;1.50;;
18449;SDS011;9354;50.194;7.690;2023-04-15T10:36:54;4.70;;;1.70;;
18449;SDS011;9354;50.194;7.690;2023-04-15T10:39:37;2.97;;;1.50;;
18449;SDS011;9354;50.194;7.690;2023-04-15T10:42:07;3.97;;;1.53;;
18449;SDS011;9354;50.194;7.690;2023-04-15T10:44:36;7.33;;;1.70;;
18449;SDS011;9354;50.194;7.690;2023-04-15T10:47:05;2.33;;;1.40;;
18449;SDS011;9354;50.194;7.690;2023-04-15T10:49:45;4.17;;;1.40;;
18449;SDS011;9354;50.194;7.690;2023-04-15T10:52:15;5.20;;;1.60;;
18449;SDS011;9354;50.194;7.690;2023-04-15T10:54:47;4.53;;;1.43;;
18449;SDS011;9354;50.194;7.690;2023-04-15T10:57:15;3.20;;;1.50;;
18449;SDS011;9354;50.194;7.690;2023-04-15T11:00:01;6.07;;;1.80;;
18449;SDS011;9354;50.194;7.690;2023-04-15T11:02:39;3.87;;;1.40;;
18449;SDS011;9354;50.194;7.690;2023-04-15T11:05:09;2.43;;;1.37;;
18449;SDS011;9354;50.194;7.690;2023-04-15T11:07:39;2.10;;;1.37;;
18449;SDS011;9354;50.194;7.690;2023-04-15T11:13:20;5.97;;;1.57;;
18449;SDS011;9354;50.194;7.690;2023-04-15T11:15:50;3.43;;;1.63;;
18449;SDS011;9354;50.194;7.690;2023-04-15T11:18:21;4.23;;;1.33;;
18449;SDS011;9354;50.194;7.690;2023-04-15T11:20:53;3.83;;;1.40;;
18449;SDS011;9354;50.194;7.690;2023-04-15T11:23:26;4.50;;;1.60;;
18449;SDS011;9354;50.194;7.690;2023-04-15T11:25:56;4.00;;;1.60;;
18449;SDS011;9354;50.194;7.690;2023-04-15T11:28:24;3.60;;;1.30;;
18449;SDS011;9354;50.194;7.690;2023-04-15T11:30:53;2.97;;;1.63;;
18449;SDS011;9354;50.194;7.690;2023-04-15T11:33:22;3.20;;;1.60;;
18449;SDS011;9354;50.194;7.690;2023-04-15T11:35:51;2.93;;;1.03;;
18449;SDS011;9354;50.194;7.690;2023-04-15T11:38:20;15.20;;;2.97;;
18449;SDS011;9354;50.194;7.690;2023-04-15T11:40:49;1.90;;;0.93;;
18449;SDS011;9354;50.194;7.690;2023-04-15T11:43:17;1.90;;;0.77;;
18449;SDS011;9354;50.194;7.690;2023-04-15T11:45:50;2.60;;;0.93;;
18449;SDS011;9354;50.194;7.690;2023-04-15T11:48:18;1.47;;;0.73;;
18449;SDS011;9354;50.194;7.690;2023-04-15T11:50:51;2.40;;;0.70;;
18449;SDS011;9354;50.194;7.690;2023-04-15T11:53:21;2.47;;;1.03;;
18449;SDS011;9354;50.194;7.690;2023-04-15T11:55:50;1.83;;;0.60;;
18449;SDS011;9354;50.194;7.690;2023-04-15T11:58:19;0.90;;;0.70;;
18449;SDS011;9354;50.194;7.690;2023-04-15T12:00:48;0.47;;;0.40;;
18449;SDS011;9354;50.194;7.690;2023-04-15T12:03:20;1.67;;;0.60;;
18449;SDS011;9354;50.194;7.690;2023-04-15T12:08:52;1.07;;;0.50;;
18449;SDS011;9354;50.194;7.690;2023-04-15T12:11:31;1.90;;;0.60;;
18449;SDS011;9354;50.194;7.690;2023-04-15T12:14:02;2.60;;;0.60;;
18449;SDS011;9354;50.194;7.690;2023-04-15T12:16:32;1.00;;;0.80;;
18449;SDS011;9354;50.194;7.690;2023-04-15T12:19:03;1.53;;;0.60;;
18449;SDS011;9354;50.194;7.690;2023-04-15T12:21:34;1.53;;;0.80;;
18449;SDS011;9354;50.194;7.690;2023-04-15T12:24:03;2.03;;;0.77;;
18449;SDS011;9354;50.194;7.690;2023-04-15T12:26:33;1.10;;;0.70;;
18449;SDS011;9354;50.194;7.690;2023-04-15T12:29:03;3.00;;;1.07;;
18449;SDS011;9354;50.194;7.690;2023-04-15T12:31:32;0.90;;;0.70;;
18449;SDS011;9354;50.194;7.690;2023-04-15T12:34:01;2.10;;;0.53;;
18449;SDS011;9354;50.194;7.690;2023-04-15T12:36:29;0.77;;;0.70;;
18449;SDS011;9354;50.194;7.690;2023-04-15T12:39:02;1.07;;;0.60;;
18449;SDS011;9354;50.194;7.690;2023-04-15T12:41:32;2.07;;;1.07;;
18449;SDS011;9354;50.194;7.690;2023-04-15T12:43:59;1.40;;;0.90;;
18449;SDS011;9354;50.194;7.690;2023-04-15T12:46:27;1.57;;;0.93;;
18449;SDS011;9354;50.194;7.690;2023-04-15T12:48:54;1.03;;;0.70;;
18449;SDS011;9354;50.194;7.690;2023-04-15T12:51:22;1.20;;;0.70;;
18449;SDS011;9354;50.194;7.690;2023-04-15T12:53:51;2.37;;;0.97;;
18449;SDS011;9354;50.194;7.690;2023-04-15T12:56:20;3.93;;;1.67;;
18449;SDS011;9354;50.194;7.690;2023-04-15T12:58:48;1.33;;;1.10;;
18449;SDS011;9354;50.194;7.690;2023-04-15T13:01:16;1.83;;;1.00;;
18449;SDS011;9354;50.194;7.690;2023-04-15T13:03:43;1.97;;;1.00;;
18449;SDS011;9354;50.194;7.690;2023-04-15T13:06:11;1.57;;;1.27;;
18449;SDS011;9354;50.194;7.690;2023-04-15T13:08:38;2.80;;;1.60;;
18449;SDS011;9354;50.194;7.690;2023-04-15T13:11:06;3.37;;;1.23;;
18449;SDS011;9354;50.194;7.690;2023-04-15T13:13:35;3.50;;;1.90;;
18449;SDS011;9354;50.194;7.690;2023-04-15T13:16:02;2.27;;;1.50;;
18449;SDS011;9354;50.194;7.690;2023-04-15T13:18:30;1.63;;;1.37;;
18449;SDS011;9354;50.194;7.690;2023-04-15T13:20:59;4.77;;;1.50;;
18449;SDS011;9354;50.194;7.690;2023-04-15T13:23:27;2.00;;;1.50;;
18449;SDS011;9354;50.194;7.690;2023-04-15T13:25:54;2.93;;;1.87;;
18449;SDS011;9354;50.194;7.690;2023-04-15T13:28:22;3.00;;;1.80;;
18449;SDS011;9354;50.194;7.690;2023-04-15T13:30:51;3.00;;;1.90;;
18449;SDS011;9354;50.194;7.690;2023-04-15T13:33:18;2.93;;;1.77;;
18449;SDS011;9354;50.194;7.690;2023-04-15T13:35:46;2.60;;;1.73;;
18449;SDS011;9354;50.194;7.690;2023-04-15T13:38:13;2.90;;;1.90;;
18449;SDS011;9354;50.194;7.690;2023-04-15T13:40:41;2.20;;;1.73;;
18449;SDS011;9354;50.194;7.690;2023-04-15T13:43:08;3.13;;;1.80;;
18449;SDS011;9354;50.194;7.690;2023-04-15T13:45:35;2.53;;;1.60;;
18449;SDS011;9354;50.194;7.690;2023-04-15T13:48:04;2.93;;;1.87;;
18449;SDS011;9354;50.194;7.690;2023-04-15T13:50:32;4.60;;;1.70;;
18449;SDS011;9354;50.194;7.690;2023-04-15T13:52:59;3.20;;;1.90;;
18449;SDS011;9354;50.194;7.690;2023-04-15T13:55:27;2.30;;;1.90;;
18449;SDS011;9354;50.194;7.690;2023-04-15T13:57:55;3.87;;;2.07;;
18449;SDS011;9354;50.194;7.690;2023-04-15T14:00:22;3.43;;;2.20;;
18449;SDS011;9354;50.194;7.690;2023-04-15T14:02:50;3.80;;;2.63;;
18449;SDS011;9354;50.194;7.690;2023-04-15T14:05:18;3.17;;;2.80;;
18449;SDS011;9354;50.194;7.690;2023-04-15T14:07:46;5.13;;;3.50;;
18449;SDS011;9354;50.194;7.690;2023-04-15T14:10:13;5.57;;;3.10;;
18449;SDS011;9354;50.194;7.690;2023-04-15T14:12:40;5.47;;;3.70;;
18449;SDS011;9354;50.194;7.690;2023-04-15T14:15:08;5.20;;;3.90;;
18449;SDS011;9354;50.194;7.690;2023-04-15T14:17:36;5.30;;;3.70;;
18449;SDS011;9354;50.194;7.690;2023-04-15T14:20:05;5.97;;;4.00;;
18449;SDS011;9354;50.194;7.690;2023-04-15T14:22:35;4.83;;;3.70;;
18449;SDS011;9354;50.194;7.690;2023-04-15T14:25:02;4.47;;;3.33;;
18449;SDS011;9354;50.194;7.690;2023-04-15T14:27:31;5.13;;;3.73;;
18449;SDS011;9354;50.194;7.690;2023-04-15T14:29:58;4.27;;;3.37;;
18449;SDS011;9354;50.194;7.690;2023-04-15T14:32:25;9.97;;;5.90;;
18449;SDS011;9354;50.194;7.690;2023-04-15T14:34:53;6.67;;;4.30;;
18449;SDS011;9354;50.194;7.690;2023-04-15T14:37:20;5.97;;;4.30;;
18449;SDS011;9354;50.194;7.690;2023-04-15T14:39:49;6.50;;;4.00;;
18449;SDS011;9354;50.194;7.690;2023-04-15T14:42:16;6.17;;;4.10;;
18449;SDS011;9354;50.194;7.690;2023-04-15T14:44:44;5.00;;;3.80;;
18449;SDS011;9354;50.194;7.690;2023-04-15T14:47:11;5.17;;;3.40;;
18449;SDS011;9354;50.194;7.690;2023-04-15T14:49:39;5.13;;;3.80;;
18449;SDS011;9354;50.194;7.690;2023-04-15T14:52:06;5.90;;;3.87;;
18449;SDS011;9354;50.194;7.690;2023-04-15T14:54:33;5.53;;;3.70;;
18449;SDS011;9354;50.194;7.690;2023-04-15T14:57:02;5.77;;;3.67;;
18449;SDS011;9354;50.194;7.690;2023-04-15T14:59:30;5.37;;;3.40;;
18449;SDS011;9354;50.194;7.690;2023-04-15T15:01:57;4.50;;;3.40;;
18449;SDS011;9354;50.194;7.690;2023-04-15T15:04:24;5.60;;;3.60;;
18449;SDS011;9354;50.194;7.690;2023-04-15T15:06:52;5.77;;;3.93;;
18449;SDS011;9354;50.194;7.690;2023-04-15T15:09:19;5.83;;;3.90;;
18449;SDS011;9354;50.194;7.690;2023-04-15T15:11:48;6.70;;;4.17;;
18449;SDS011;9354;50.194;7.690;2023-04-15T15:14:17;7.70;;;3.87;;